Airfield :
LOGIN :

Register | Disclaimer

   EN    FR    IT 

 










Legend :    VFR   Marginal VFR   IFR   Intensive IFR   Very Intensive IFR
Visi :
Ceiling :
>= 8 km
>= 3000ft
5 to 8 km
1000 to 3000 ft
1500m to 5 km
500 to 1000 ft
800 to 1500m
200 to 500 ft
< 800m
< 200 ft
Symbols :   Thunderstorms  Fog  Heavy snow  Heavy precipitations  Wind > 20 kt
SIGMETs :     Misc.  Thunderstorms  Icing  Turbulence  Mountain Waves  Volcanic Ashes







- Airport Elevation : 299 ft
- IATA code : EDM
- Download approach charts


LFRI - La Roche Sur Yon - Les Ajoncs

CURRENT METAR :
  • 210730Z AUTO 14006KT 8000 NSC M01/M02 Q1009 NOSIG

EXPIRED METARs :
  • 210700Z AUTO 13005KT 9000 NSC M01/M02 Q1009 TEMPO 3000 BR
  • 210630Z AUTO 12007KT 100V160 CAVOK M00/M02 Q1008 TEMPO 3000 BR
  • 210600Z AUTO 13008KT CAVOK M00/M02 Q1008 TEMPO 3000 BR
  • 210530Z AUTO 13007KT 9000 NSC M01/M02 Q1008 TEMPO 3000 BR
  • 210500Z AUTO 12008KT 9000 NSC M00/M02 Q1008

TAF TAF LFRI
Valid from the 21 at 06:00 until the 22 at 06:00 UTC


210500Z 2106/2206 14008KT 9999 SCT030
PROB30
TEMPO 2106/2108 3000 BR
FM211500 07008KT CAVOK
PROB30
TEMPO 2203/2206 2000 BR BKN003
No reported NOTAMs for that airfield.



MET'MAP, your aeronautical weather chart ! - Copyright ORBIFLY December 2007 - Disclaimer

ORBIFLY MET'MAP TEAM :

Programming & Development : Alexandra Zaïnal
Concept & Development : Baudouin d'Aumeries
Co-Development & Prog : Marc-Olivier Méhu
Technical & hardware support : Manuel Goepfert

Contact : metmap@orbifly.com




SOURCES & CREDITS :

   NOAA